Time;durP1;ratioP1;P1;durP2;ratioP2;P2;SDS_P1;SDS_P2;PMS_P1;PMS_P2;Temp;Humidity;BMP_temperature;BMP_pressure;BME280_temperature;BME280_humidity;BME280_pressure;Samples;Min_cycle;Max_cycle;Signal;HPM_P1;HPM_P2
2024/02/17 00:01:30;;;;;;;6.93;6.20;;;13.20;99.90;;;;;;4941653;28;20200;-90
2024/02/17 00:03:55;;;;;;;7.00;6.40;;;13.20;99.90;;;;;;4944838;28;20177;-90
2024/02/17 00:06:21;;;;;;;7.63;6.83;;;13.30;99.90;;;;;;4946313;28;20712;-90
2024/02/17 00:08:46;;;;;;;6.90;6.27;;;15.10;99.90;;;;;;4941171;29;20185;-90
2024/02/17 00:11:12;;;;;;;6.60;6.00;;;13.40;99.90;;;;;;4940966;29;21148;-90
2024/02/17 00:13:37;;;;;;;9.13;6.90;;;13.30;99.90;;;;;;4934149;28;20653;-90
2024/02/17 00:16:03;;;;;;;7.37;6.67;;;13.70;99.90;;;;;;4939747;29;20296;-90
2024/02/17 00:18:29;;;;;;;6.73;6.10;;;13.50;99.90;;;;;;4939530;28;20216;-90
2024/02/17 00:20:57;;;;;;;6.33;5.73;;;13.10;99.90;;;;;;4938869;28;20192;-90
2024/02/17 00:23:23;;;;;;;6.68;5.40;;;12.90;99.90;;;;;;4937807;28;20217;-90
2024/02/17 00:25:48;;;;;;;7.27;6.40;;;13.10;99.90;;;;;;4938283;29;20232;-90
2024/02/17 00:28:14;;;;;;;6.83;6.03;;;13.50;99.90;;;;;;4937865;29;20704;-90
2024/02/17 00:30:40;;;;;;;7.47;6.10;;;13.30;99.90;;;;;;4939704;28;20185;-90
2024/02/17 00:33:06;;;;;;;8.52;6.95;;;13.40;99.90;;;;;;4939875;28;20188;-90
2024/02/17 00:35:32;;;;;;;7.53;6.80;;;;;;;;;;4942435;28;20209;-89
2024/02/17 00:37:57;;;;;;;8.95;6.57;;;13.30;99.90;;;;;;4939732;29;20208;-90
2024/02/17 00:40:23;;;;;;;7.03;6.43;;;13.40;99.90;;;;;;4938074;28;20192;-90
2024/02/17 00:42:48;;;;;;;9.10;6.30;;;13.40;99.90;;;;;;4945021;29;20209;-90
2024/02/17 00:45:14;;;;;;;6.70;6.10;;;13.40;99.90;;;;;;4937868;29;20288;-90
2024/02/17 00:47:39;;;;;;;7.37;6.67;;;13.60;99.90;;;;;;4941195;28;20200;-90
2024/02/17 00:50:05;;;;;;;7.33;6.40;;;13.40;99.90;;;;;;4943791;29;20185;-90
2024/02/17 00:52:31;;;;;;;7.35;6.65;;;13.40;99.90;;;;;;4962270;28;20627;-90
2024/02/17 00:54:56;;;;;;;9.97;7.20;;;13.60;99.90;;;;;;4949094;29;20216;-90
2024/02/17 00:57:23;;;;;;;7.57;6.43;;;13.40;99.90;;;;;;4969912;28;20280;-89
2024/02/17 00:59:48;;;;;;;7.72;6.90;;;13.30;99.90;;;;;;4942810;28;20442;-90
2024/02/17 01:02:14;;;;;;;7.37;6.67;;;12.90;99.90;;;;;;4949402;29;20201;-90
2024/02/17 01:04:39;;;;;;;6.03;5.37;;;12.80;99.90;;;;;;4945128;28;20272;-90
2024/02/17 01:07:05;;;;;;;8.93;6.70;;;13.40;99.90;;;;;;4938232;29;20185;-90
2024/02/17 01:09:30;;;;;;;6.80;6.20;;;13.20;99.90;;;;;;4938662;28;20193;-90
2024/02/17 01:11:58;;;;;;;10.30;5.70;;;13.30;99.90;;;;;;4938677;29;20220;-90
2024/02/17 01:14:23;;;;;;;7.53;5.75;;;13.50;99.90;;;;;;4937501;28;20184;-90
2024/02/17 01:16:49;;;;;;;7.33;6.03;;;13.50;99.90;;;;;;4943637;29;20197;-89
2024/02/17 01:19:14;;;;;;;6.97;6.30;;;13.50;99.90;;;;;;4940171;29;20197;-89
2024/02/17 01:21:40;;;;;;;6.30;5.70;;;13.50;99.90;;;;;;4942844;28;20185;-90
2024/02/17 01:24:05;;;;;;;6.33;5.47;;;13.60;99.90;;;;;;4939212;29;20281;-90
2024/02/17 01:26:31;;;;;;;6.17;5.57;;;13.50;99.90;;;;;;4939577;28;20287;-89
2024/02/17 01:28:56;;;;;;;6.73;5.80;;;13.60;99.90;;;;;;4941477;28;20185;-90
2024/02/17 01:31:22;;;;;;;7.30;6.60;;;12.80;99.90;;;;;;4937050;29;20173;-90
2024/02/17 01:33:50;;;;;;;6.27;5.63;;;13.40;99.90;;;;;;4941169;28;20743;-90
2024/02/17 01:36:16;;;;;;;5.65;5.15;;;14.00;99.90;;;;;;4931817;29;20675;-90
2024/02/17 01:38:42;;;;;;;7.95;6.10;;;13.60;99.90;;;;;;4938080;28;20184;-90
2024/02/17 01:41:08;;;;;;;6.60;5.53;;;13.90;99.90;;;;;;4938330;29;20199;-90
2024/02/17 01:43:35;;;;;;;61.37;35.53;;;13.50;99.90;;;;;;4954936;28;20244;-90
2024/02/17 01:46:01;;;;;;;6.45;5.85;;;13.60;99.90;;;;;;4925966;28;20466;-89
2024/02/17 01:48:27;;;;;;;6.13;5.53;;;13.00;99.90;;;;;;4937811;28;20204;-90
2024/02/17 01:50:52;;;;;;;6.00;5.38;;;13.30;99.90;;;;;;4938294;29;20247;-90
2024/02/17 01:53:18;;;;;;;5.87;5.37;;;13.30;99.90;;;;;;4939069;29;20722;-90
2024/02/17 01:55:44;;;;;;;7.17;5.77;;;13.40;99.90;;;;;;4939853;28;20212;-90
2024/02/17 01:58:10;;;;;;;7.37;6.67;;;13.40;99.90;;;;;;4939243;29;20224;-91
2024/02/17 02:00:37;;;;;;;6.55;5.75;;;13.80;99.90;;;;;;4936859;28;20197;-90
2024/02/17 02:03:03;;;;;;;6.40;5.80;;;13.80;99.90;;;;;;4938300;29;20205;-90
2024/02/17 02:05:30;;;;;;;6.43;5.20;;;13.30;99.90;;;;;;4938114;28;20692;-89
2024/02/17 02:07:56;;;;;;;5.90;5.40;;;13.30;99.90;;;;;;4940712;28;20188;-89
2024/02/17 02:10:23;;;;;;;5.70;5.10;;;13.60;99.90;;;;;;4936880;29;20181;-90
2024/02/17 02:12:49;;;;;;;7.13;5.70;;;14.00;99.90;;;;;;4943721;28;20181;-90
2024/02/17 02:15:14;;;;;;;5.77;5.17;;;13.70;99.90;;;;;;4936752;29;20226;-90
2024/02/17 02:17:46;;;;;;;6.40;5.80;;;13.80;99.90;;;;;;4937892;28;20188;-90
2024/02/17 02:20:13;;;;;;;8.20;5.95;;;13.50;99.90;;;;;;4937250;28;20276;-90
2024/02/17 02:22:38;;;;;;;6.53;5.90;;;13.50;99.90;;;;;;4937687;28;20766;-90
2024/02/17 02:25:06;;;;;;;7.40;5.70;;;13.50;99.90;;;;;;4934316;29;20311;-90
2024/02/17 02:27:31;;;;;;;5.32;4.82;;;13.60;99.90;;;;;;4937759;28;20283;-90
2024/02/17 02:29:58;;;;;;;3.60;3.30;;;13.60;99.90;;;;;;4954503;28;20253;-91
2024/02/17 02:32:27;;;;;;;3.00;2.45;;;13.90;99.90;;;;;;4936110;29;20180;-91
2024/02/17 02:34:54;;;;;;;5.00;2.40;;;13.30;99.90;;;;;;4938699;28;20325;-91
2024/02/17 02:37:19;;;;;;;2.67;2.47;;;12.90;99.90;;;;;;4962655;28;20192;-90
2024/02/17 02:39:45;;;;;;;2.30;2.10;;;12.80;99.90;;;;;;4938034;28;20192;-90
2024/02/17 02:42:11;;;;;;;3.97;3.57;;;13.50;99.90;;;;;;4940047;29;20536;-90
2024/02/17 02:44:36;;;;;;;4.47;4.07;;;12.80;99.90;;;;;;4938400;28;20392;-91
2024/02/17 02:47:02;;;;;;;4.20;3.80;;;12.70;99.90;;;;;;4939473;29;20180;-90
2024/02/17 02:49:27;;;;;;;5.13;4.30;;;12.80;99.90;;;;;;4940962;29;20193;-90
2024/02/17 02:51:54;;;;;;;5.77;3.80;;;13.50;99.90;;;;;;4941369;28;20220;-90
2024/02/17 02:54:21;;;;;;;5.00;4.43;;;13.20;99.90;;;;;;4941734;29;20185;-90
2024/02/17 02:56:47;;;;;;;7.20;4.75;;;13.30;99.90;;;;;;4943789;28;20200;-90
2024/02/17 02:59:13;;;;;;;6.00;5.03;;;13.80;99.90;;;;;;4946507;28;20601;-91
2024/02/17 03:01:38;;;;;;;5.53;4.90;;;12.60;99.90;;;;;;4959927;28;20476;-90
2024/02/17 03:04:04;;;;;;;7.40;6.00;;;12.50;99.90;;;;;;4962829;28;20244;-90
2024/02/17 03:06:29;;;;;;;8.40;6.90;;;12.80;99.90;;;;;;4958107;28;20197;-91
2024/02/17 03:08:55;;;;;;;7.60;6.77;;;12.80;99.90;;;;;;4942801;28;20277;-90
2024/02/17 03:11:21;;;;;;;7.80;7.07;;;12.90;99.90;;;;;;4941329;29;20181;-90
2024/02/17 03:13:46;;;;;;;8.80;7.90;;;12.60;99.90;;;;;;4939086;28;20196;-90
2024/02/17 03:16:22;;;;;;;7.73;6.97;;;12.40;99.90;;;;;;4937396;29;20205;-91
2024/02/17 03:18:47;;;;;;;8.93;7.55;;;13.10;99.90;;;;;;4938155;28;20211;-90
2024/02/17 03:21:13;;;;;;;9.33;8.00;;;12.60;99.90;;;;;;4939638;29;20697;-90
2024/02/17 03:23:38;;;;;;;8.60;7.60;;;12.70;99.90;;;;;;4942332;28;20201;-91
2024/02/17 03:26:04;;;;;;;9.20;8.03;;;12.70;99.90;;;;;;4943086;28;20213;-91
2024/02/17 03:28:31;;;;;;;10.93;9.83;;;12.50;99.90;;;;;;4943897;29;20192;-90
2024/02/17 03:30:57;;;;;;;9.90;8.77;;;13.00;99.90;;;;;;4951792;28;20217;-90
2024/02/17 03:33:23;;;;;;;11.07;9.73;;;12.80;99.90;;;;;;4947196;29;20181;-90
2024/02/17 03:35:49;;;;;;;10.63;8.90;;;12.00;99.90;;;;;;4943192;28;20693;-90
2024/02/17 03:38:15;;;;;;;13.35;10.13;;;12.80;99.90;;;;;;4931866;29;20191;-90
2024/02/17 03:40:40;;;;;;;11.17;9.90;;;12.80;99.90;;;;;;4955452;28;20296;-91
2024/02/17 03:43:06;;;;;;;12.83;11.10;;;12.20;99.90;;;;;;4964422;28;20236;-91
2024/02/17 03:45:31;;;;;;;12.13;10.57;;;12.40;99.90;;;;;;4962666;29;20198;-91
2024/02/17 03:47:57;;;;;;;10.10;8.97;;;12.00;99.90;;;;;;4957146;28;20670;-91
2024/02/17 03:50:22;;;;;;;12.47;10.50;;;12.80;99.90;;;;;;4959377;29;20233;-91
2024/02/17 03:52:48;;;;;;;11.23;9.60;;;12.60;99.90;;;;;;4957716;29;20185;-90
2024/02/17 03:55:13;;;;;;;11.53;9.13;;;12.70;99.90;;;;;;4972854;28;20658;-90
2024/02/17 03:57:39;;;;;;;10.37;9.00;;;12.70;99.90;;;;;;4955341;28;20193;-90
2024/02/17 04:00:07;;;;;;;12.23;10.30;;;12.40;99.90;;;;;;4951884;29;20635;-90
2024/02/17 04:02:32;;;;;;;10.50;9.13;;;12.40;99.90;;;;;;4950829;29;20625;-90
2024/02/17 04:04:58;;;;;;;11.30;10.10;;;12.00;99.90;;;;;;4939962;28;20209;-90
2024/02/17 04:07:24;;;;;;;10.97;9.57;;;12.50;99.90;;;;;;4952417;29;20205;-90
2024/02/17 04:09:49;;;;;;;10.67;9.57;;;12.30;99.90;;;;;;4959312;28;20173;-90
2024/02/17 04:12:15;;;;;;;11.03;9.70;;;12.30;99.90;;;;;;4954052;29;20256;-90
2024/02/17 04:14:43;;;;;;;11.40;9.27;;;12.40;99.90;;;;;;4949662;28;20204;-90
2024/02/17 04:17:09;;;;;;;11.27;9.00;;;12.70;99.90;;;;;;4951033;29;20516;-90
2024/02/17 04:19:34;;;;;;;12.07;10.83;;;12.80;99.90;;;;;;4952722;29;20192;-90
2024/02/17 04:22:00;;;;;;;10.13;9.03;;;12.80;99.90;;;;;;4950691;29;20284;-90
2024/02/17 04:24:25;;;;;;;10.10;7.23;;;12.70;99.90;;;;;;4945407;29;20201;-89
2024/02/17 04:26:51;;;;;;;11.43;8.53;;;12.00;99.90;;;;;;4956549;28;20272;-90
2024/02/17 04:29:17;;;;;;;10.40;8.70;;;12.40;99.90;;;;;;4970528;28;20199;-90
2024/02/17 04:31:42;;;;;;;12.00;10.75;;;12.40;99.90;;;;;;4945970;28;20181;-90
2024/02/17 04:34:08;;;;;;;10.20;8.50;;;12.70;99.90;;;;;;4951128;28;20192;-91
2024/02/17 04:36:34;;;;;;;9.60;8.60;;;12.60;99.90;;;;;;4940801;29;20197;-91
2024/02/17 04:39:00;;;;;;;10.40;8.80;;;12.70;99.90;;;;;;4943329;28;20240;-91
2024/02/17 04:41:25;;;;;;;9.75;8.13;;;12.80;99.90;;;;;;4949152;29;20189;-90
2024/02/17 04:43:51;;;;;;;8.90;7.97;;;12.30;99.90;;;;;;4958341;28;20208;-89
2024/02/17 04:46:16;;;;;;;9.37;7.33;;;12.50;99.90;;;;;;4957690;29;20232;-90
2024/02/17 04:48:42;;;;;;;8.13;6.80;;;12.40;99.90;;;;;;4947673;29;20192;-90
2024/02/17 04:51:07;;;;;;;8.73;7.83;;;12.50;99.90;;;;;;4945681;28;20215;-90
2024/02/17 04:53:33;;;;;;;7.90;7.10;;;12.50;99.90;;;;;;4940374;29;20292;-90
2024/02/17 04:55:58;;;;;;;7.93;6.60;;;12.20;99.90;;;;;;4940872;28;20244;-89
2024/02/17 04:58:24;;;;;;;9.67;6.57;;;12.20;99.90;;;;;;4936652;29;20184;-85
2024/02/17 05:00:49;;;;;;;7.00;5.83;;;12.20;99.90;;;;;;4935888;28;20193;-85
2024/02/17 05:03:15;;;;;;;9.20;7.30;;;12.70;99.90;;;;;;4939770;29;20252;-86
2024/02/17 05:05:42;;;;;;;7.97;7.17;;;12.70;99.90;;;;;;4948553;28;20201;-87
2024/02/17 05:08:08;;;;;;;9.25;7.22;;;12.60;99.90;;;;;;4943116;28;20185;-84
2024/02/17 05:10:33;;;;;;;8.67;7.67;;;12.10;99.90;;;;;;4975069;28;20262;-85
2024/02/17 05:12:59;;;;;;;10.97;8.73;;;12.40;99.90;;;;;;4937393;29;20619;-85
2024/02/17 05:15:25;;;;;;;8.90;8.00;;;12.30;99.90;;;;;;4938394;28;20204;-85
2024/02/17 05:17:51;;;;;;;13.68;8.98;;;12.20;99.90;;;;;;4938653;28;20180;-85
2024/02/17 05:20:16;;;;;;;11.40;9.50;;;12.70;99.90;;;;;;4938124;29;20654;-84
2024/02/17 05:22:43;;;;;;;13.20;10.30;;;12.40;99.90;;;;;;4936626;29;20280;-84
2024/02/17 05:25:09;;;;;;;10.98;9.55;;;12.50;99.90;;;;;;4942937;28;20201;-86
2024/02/17 05:27:35;;;;;;;11.90;10.23;;;12.30;99.90;;;;;;4940740;29;20191;-86
2024/02/17 05:30:01;;;;;;;12.13;10.38;;;12.70;99.90;;;;;;4938241;28;20177;-85
2024/02/17 05:32:27;;;;;;;14.33;10.73;;;12.20;99.90;;;;;;4940942;29;20208;-86
2024/02/17 05:34:53;;;;;;;13.70;10.32;;;12.20;99.90;;;;;;4951784;28;20189;-86
2024/02/17 05:37:18;;;;;;;12.10;10.10;;;12.20;99.90;;;;;;4936362;29;20619;-86
2024/02/17 05:39:45;;;;;;;15.13;10.27;;;12.60;99.90;;;;;;4937685;29;20180;-85
2024/02/17 05:42:11;;;;;;;15.18;12.20;;;12.50;99.90;;;;;;4938838;28;20197;-86
2024/02/17 05:44:36;;;;;;;14.60;11.47;;;12.30;99.90;;;;;;4937930;28;20284;-85
2024/02/17 05:47:02;;;;;;;14.27;11.77;;;12.00;99.90;;;;;;4932779;28;20211;-85
2024/02/17 05:49:27;;;;;;;15.23;11.30;;;12.50;99.90;;;;;;4938148;29;20258;-84
2024/02/17 05:51:53;;;;;;;16.70;12.43;;;12.10;99.90;;;;;;4952579;28;20232;-85
2024/02/17 05:54:19;;;;;;;15.33;11.43;;;12.70;99.90;;;;;;4938853;29;20603;-85
2024/02/17 05:56:45;;;;;;;15.85;12.60;;;12.00;99.90;;;;;;4954664;28;20268;-85
2024/02/17 05:59:11;;;;;;;13.97;10.13;;;12.00;99.90;;;;;;4934339;29;20228;-85
2024/02/17 06:01:37;;;;;;;14.97;10.73;;;12.10;99.90;;;;;;4933975;29;20524;-85
2024/02/17 06:04:02;;;;;;;14.20;11.45;;;12.00;99.90;;;;;;4934532;28;20447;-86
2024/02/17 06:06:28;;;;;;;17.10;11.63;;;11.50;99.90;;;;;;4936329;28;20213;-85
2024/02/17 06:08:53;;;;;;;15.50;11.17;;;12.30;99.90;;;;;;4934827;28;20177;-85
2024/02/17 06:11:19;;;;;;;15.63;12.63;;;11.90;99.90;;;;;;4940573;29;20239;-86
2024/02/17 06:13:44;;;;;;;15.70;12.20;;;12.20;99.90;;;;;;4935491;29;20188;-86
2024/02/17 06:16:11;;;;;;;15.90;11.37;;;12.00;99.90;;;;;;4945023;28;20244;-84
2024/02/17 06:21:35;;;;;;;18.55;12.63;;;12.00;99.90;;;;;;4938891;28;20252;-85
2024/02/17 06:24:02;;;;;;;16.33;13.60;;;11.90;99.90;;;;;;4941476;28;20184;-85
2024/02/17 06:26:29;;;;;;;16.80;12.55;;;11.30;99.90;;;;;;4936282;28;20221;-84
2024/02/17 06:28:57;;;;;;;17.40;13.20;;;11.70;99.90;;;;;;4936773;28;20189;-85
2024/02/17 06:31:23;;;;;;;16.23;12.25;;;12.00;99.90;;;;;;4937627;29;20203;-85
2024/02/17 06:33:49;;;;;;;15.82;12.15;;;11.90;99.90;;;;;;4938785;29;20635;-85
2024/02/17 06:36:15;;;;;;;16.70;12.40;;;11.70;99.90;;;;;;4935936;28;20248;-85
2024/02/17 06:38:41;;;;;;;19.17;12.77;;;11.50;99.90;;;;;;4934168;29;20443;-85
2024/02/17 06:41:09;;;;;;;17.80;12.82;;;11.60;99.90;;;;;;4936525;28;20457;-85
2024/02/17 06:43:34;;;;;;;16.13;12.45;;;12.00;99.90;;;;;;4934769;29;20299;-86
2024/02/17 06:46:00;;;;;;;17.03;12.50;;;11.40;99.90;;;;;;4933956;28;20267;-85
2024/02/17 06:48:26;;;;;;;18.63;13.70;;;11.40;99.90;;;;;;4934350;28;20219;-85
2024/02/17 06:50:52;;;;;;;16.20;12.97;;;11.60;99.90;;;;;;4938926;29;20445;-86
2024/02/17 06:53:18;;;;;;;14.23;11.60;;;11.60;99.90;;;;;;4936252;28;20272;-85
2024/02/17 06:55:44;;;;;;;17.40;13.10;;;11.60;99.90;;;;;;4939050;29;20297;-86
2024/02/17 06:58:09;;;;;;;16.33;11.65;;;11.60;99.90;;;;;;4939225;28;20398;-85
2024/02/17 07:00:36;;;;;;;16.57;12.00;;;11.90;99.90;;;;;;4937984;29;20209;-86
2024/02/17 07:03:04;;;;;;;16.17;12.70;;;11.60;99.90;;;;;;4943417;28;20216;-86
2024/02/17 07:05:29;;;;;;;16.65;12.48;;;11.50;99.90;;;;;;4940168;29;20206;-85
2024/02/17 07:07:55;;;;;;;19.17;13.50;;;11.90;99.90;;;;;;4944696;29;20192;-85
2024/02/17 07:10:20;;;;;;;17.00;13.00;;;11.50;99.90;;;;;;4941812;28;20196;-86
2024/02/17 07:12:46;;;;;;;14.50;12.00;;;11.70;99.90;;;;;;4941275;29;20566;-87
2024/02/17 07:15:11;;;;;;;16.03;13.20;;;11.60;99.90;;;;;;4942642;28;20231;-86
2024/02/17 07:17:37;;;;;;;17.37;12.67;;;11.50;99.90;;;;;;4934713;29;20189;-87
2024/02/17 07:20:04;;;;;;;14.60;11.93;;;11.30;99.90;;;;;;4938180;28;20566;-86
2024/02/17 07:22:29;;;;;;;17.67;13.43;;;11.40;99.90;;;;;;4939871;29;20230;-85
2024/02/17 07:24:55;;;;;;;21.73;13.43;;;11.30;99.90;;;;;;4939991;29;20200;-85
2024/02/17 07:27:20;;;;;;;17.30;12.17;;;11.00;99.90;;;;;;4942919;28;20183;-85
2024/02/17 07:29:46;;;;;;;20.93;14.80;;;11.30;99.90;;;;;;4940400;29;20271;-85
2024/02/17 07:32:13;;;;;;;18.00;13.23;;;11.60;99.90;;;;;;4937569;28;20244;-85
2024/02/17 07:34:41;;;;;;;18.67;12.75;;;11.40;99.90;;;;;;4935877;29;20444;-85
2024/02/17 07:37:07;;;;;;;19.35;12.60;;;11.30;99.90;;;;;;4945392;28;20192;-85
2024/02/17 07:39:35;;;;;;;17.10;13.90;;;11.10;99.90;;;;;;4936258;29;20546;-85
2024/02/17 07:42:01;;;;;;;16.40;12.48;;;11.80;99.90;;;;;;4935785;28;20208;-85
2024/02/17 07:44:27;;;;;;;19.03;14.37;;;12.00;99.90;;;;;;4937312;29;20260;-85
2024/02/17 07:46:52;;;;;;;16.07;12.80;;;12.00;99.90;;;;;;4936549;29;20468;-87
2024/02/17 07:49:18;;;;;;;14.30;12.63;;;12.20;99.90;;;;;;4935369;28;20208;-87
2024/02/17 07:51:44;;;;;;;14.67;11.83;;;12.50;99.90;;;;;;4932694;28;20189;-87
2024/02/17 07:54:10;;;;;;;15.52;11.80;;;12.20;99.90;;;;;;4943383;28;20201;-86
2024/02/17 07:56:35;;;;;;;15.87;12.30;;;12.50;99.90;;;;;;4944064;28;20332;-87
2024/02/17 07:59:01;;;;;;;14.83;11.03;;;12.50;99.90;;;;;;4939061;29;20181;-85
2024/02/17 08:01:26;;;;;;;15.60;11.80;;;12.20;99.90;;;;;;4938950;28;20280;-84
2024/02/17 08:03:52;;;;;;;12.80;10.70;;;12.40;99.90;;;;;;4938252;28;20219;-84
2024/02/17 08:06:21;;;;;;;14.33;10.07;;;12.40;99.90;;;;;;4935643;28;20296;-84
2024/02/17 08:08:49;;;;;;;15.38;11.57;;;12.70;99.90;;;;;;4933045;29;20190;-84
2024/02/17 08:11:16;;;;;;;12.98;11.57;;;13.30;99.90;;;;;;4943732;28;20578;-84
2024/02/17 08:13:42;;;;;;;14.15;11.73;;;13.30;99.90;;;;;;4944019;28;20199;-87
2024/02/17 08:16:09;;;;;;;11.50;9.90;;;13.30;99.90;;;;;;4944085;28;20332;-86
2024/02/17 08:18:35;;;;;;;13.95;11.07;;;13.40;99.90;;;;;;4939720;29;20188;-85
2024/02/17 08:21:02;;;;;;;12.43;10.67;;;13.40;99.90;;;;;;4942446;28;20188;-87
2024/02/17 08:23:28;;;;;;;15.25;11.50;;;13.60;99.90;;;;;;4940717;28;20591;-86
2024/02/17 08:25:55;;;;;;;12.98;10.18;;;12.80;99.90;;;;;;4942685;28;20201;-87
2024/02/17 08:28:20;;;;;;;13.15;10.80;;;13.10;99.90;;;;;;4944361;28;20247;-85
2024/02/17 08:30:46;;;;;;;13.30;10.90;;;13.50;99.90;;;;;;4941850;29;20188;-86
2024/02/17 08:33:11;;;;;;;14.27;11.40;;;13.40;99.90;;;;;;4936825;28;20212;-87
2024/02/17 08:35:37;;;;;;;15.23;11.90;;;13.20;99.90;;;;;;4937926;29;20217;-88
2024/02/17 08:38:03;;;;;;;15.90;11.30;;;13.10;99.90;;;;;;4934113;28;20313;-87
2024/02/17 08:40:29;;;;;;;14.63;11.60;;;12.90;99.90;;;;;;4940916;28;20658;-87
2024/02/17 08:42:55;;;;;;;13.70;11.27;;;12.70;99.90;;;;;;4949749;28;20264;-87
2024/02/17 08:45:21;;;;;;;14.10;12.30;;;13.00;99.90;;;;;;4934807;28;20222;-86
2024/02/17 08:47:46;;;;;;;15.50;12.07;;;12.90;99.90;;;;;;4937245;29;20197;-84
2024/02/17 08:50:12;;;;;;;15.40;12.27;;;13.10;99.90;;;;;;4943790;28;20181;-84
2024/02/17 08:52:37;;;;;;;16.00;12.33;;;13.00;99.90;;;;;;4939968;28;20721;-86
2024/02/17 08:55:03;;;;;;;14.20;11.80;;;13.00;99.90;;;;;;4937761;29;20238;-84
2024/02/17 08:57:29;;;;;;;14.50;12.00;;;13.30;99.90;;;;;;4950146;28;20184;-84
2024/02/17 08:59:54;;;;;;;16.30;11.67;;;13.50;99.90;;;;;;4943304;28;20447;-82
2024/02/17 09:02:20;;;;;;;14.00;11.90;;;12.90;99.90;;;;;;4940221;28;20217;-83
2024/02/17 09:04:46;;;;;;;14.20;11.60;;;13.90;99.90;;;;;;4944317;28;20271;-85
2024/02/17 09:07:11;;;;;;;14.43;11.13;;;14.30;99.90;;;;;;4936728;28;20268;-86
2024/02/17 09:09:37;;;;;;;14.27;11.90;;;14.30;99.90;;;;;;4936355;29;20504;-85
2024/02/17 09:12:03;;;;;;;13.63;11.40;;;14.20;99.90;;;;;;4933559;29;20446;-86
2024/02/17 09:14:34;;;;;;;16.70;11.50;;;14.00;99.90;;;;;;4950019;28;20212;-88
2024/02/17 09:17:00;;;;;;;13.02;10.82;;;14.00;99.90;;;;;;4939782;28;20193;-84
2024/02/17 09:19:25;;;;;;;15.03;10.73;;;14.40;99.90;;;;;;4936905;28;20196;-83
2024/02/17 09:21:52;;;;;;;12.47;10.83;;;14.30;99.90;;;;;;4934808;28;20821;-84
2024/02/17 09:24:25;;;;;;;11.07;9.75;;;13.80;99.90;;;;;;4933922;28;20779;-84
2024/02/17 09:26:50;;;;;;;12.15;10.07;;;14.10;99.90;;;;;;4938353;29;20224;-84
2024/02/17 09:29:16;;;;;;;12.40;11.10;;;14.30;99.90;;;;;;4938936;28;20185;-84
2024/02/17 09:31:41;;;;;;;14.53;12.30;;;14.60;99.90;;;;;;4938601;29;20189;-84
2024/02/17 09:34:07;;;;;;;12.27;10.60;;;16.10;99.90;;;;;;4934620;29;20199;-84
2024/02/17 09:36:32;;;;;;;10.60;9.50;;;16.00;99.90;;;;;;4938706;28;20236;-85
2024/02/17 09:38:58;;;;;;;10.63;9.30;;;16.30;99.90;;;;;;4938168;28;20252;-83
2024/02/17 09:41:23;;;;;;;10.50;9.40;;;16.00;99.90;;;;;;4941104;28;20618;-83
2024/02/17 09:43:49;;;;;;;11.10;9.30;;;15.50;99.90;;;;;;4937935;29;20228;-83
2024/02/17 09:46:17;;;;;;;10.18;9.05;;;14.90;99.90;;;;;;4948230;28;20215;-84
2024/02/17 09:48:42;;;;;;;10.75;7.82;;;15.20;99.90;;;;;;4935829;29;20300;-85
2024/02/17 09:51:08;;;;;;;10.77;9.03;;;15.10;99.90;;;;;;4933438;28;20617;-85
2024/02/17 09:53:37;;;;;;;9.63;8.63;;;15.40;99.90;;;;;;4935020;28;20196;-85
2024/02/17 09:56:04;;;;;;;8.70;7.82;;;15.70;99.90;;;;;;4934635;28;20209;-84
2024/02/17 09:58:29;;;;;;;11.55;9.32;;;15.60;99.90;;;;;;4933240;28;20195;-85
2024/02/17 10:00:55;;;;;;;8.93;8.00;;;15.60;99.90;;;;;;4933884;28;20185;-84
2024/02/17 10:03:22;;;;;;;12.97;8.33;;;16.00;99.90;;;;;;4938938;28;20204;-85
2024/02/17 10:05:48;;;;;;;10.35;8.32;;;15.90;99.90;;;;;;4935251;28;20204;-84
2024/02/17 10:08:13;;;;;;;8.40;7.60;;;15.50;99.90;;;;;;4935609;28;20464;-84
2024/02/17 10:10:43;;;;;;;8.40;7.57;;;15.50;99.90;;;;;;4935476;28;20444;-84
2024/02/17 10:13:20;;;;;;;11.32;9.68;;;15.30;99.90;;;;;;4938596;28;20188;-83
2024/02/17 10:15:46;;;;;;;12.57;8.90;;;14.40;99.90;;;;;;4937126;28;20204;-83
2024/02/17 10:18:14;;;;;;;9.38;8.13;;;14.90;99.90;;;;;;4941246;29;20726;-85
2024/02/17 10:20:44;;;;;;;8.23;7.43;;;14.40;99.90;;;;;;4936096;28;20269;-84
2024/02/17 10:23:09;;;;;;;9.80;8.80;;;13.90;99.90;;;;;;4952312;28;20215;-84
2024/02/17 10:25:37;;;;;;;8.53;7.33;;;14.90;99.90;;;;;;4935536;28;20331;-84
2024/02/17 10:28:03;;;;;;;9.18;8.18;;;14.80;99.90;;;;;;4936547;29;20200;-85
2024/02/17 10:30:29;;;;;;;9.25;7.57;;;14.80;99.90;;;;;;4942620;23;20232;-86
2024/02/17 10:32:54;;;;;;;8.60;7.70;;;15.10;99.90;;;;;;4928976;29;20196;-86
2024/02/17 10:35:21;;;;;;;9.40;8.13;;;15.00;99.90;;;;;;4929630;28;20213;-87
2024/02/17 10:37:49;;;;;;;9.70;8.45;;;14.90;99.90;;;;;;4929622;29;20189;-87
2024/02/17 10:40:15;;;;;;;12.02;7.93;;;15.60;99.90;;;;;;4934195;29;20186;-87
2024/02/17 10:42:40;;;;;;;7.97;7.17;;;15.10;99.90;;;;;;4932469;29;20786;-86
2024/02/17 10:45:06;;;;;;;8.33;7.50;;;15.40;99.90;;;;;;4933691;29;20264;-87
2024/02/17 10:47:36;;;;;;;8.35;7.55;;;15.70;99.90;;;;;;4932784;29;20178;-87
2024/02/17 10:50:13;;;;;;;9.60;8.23;;;15.80;99.90;;;;;;4933440;29;20185;-87
2024/02/17 10:52:43;;;;;;;8.48;7.28;;;16.30;99.50;;;;;;4934081;29;20196;-87
2024/02/17 10:55:13;;;;;;;7.82;7.03;;;16.50;99.20;;;;;;4926008;29;20739;-87
2024/02/17 10:57:56;;;;;;;6.82;6.13;;;16.60;99.30;;;;;;4928906;29;20216;-87
2024/02/17 11:00:23;;;;;;;9.95;7.40;;;16.50;98.90;;;;;;4926147;29;20185;-88
2024/02/17 11:02:53;;;;;;;7.53;6.82;;;17.10;99.20;;;;;;4933685;29;20212;-86
2024/02/17 11:05:20;;;;;;;7.00;6.30;;;18.20;96.90;;;;;;4932062;28;20202;-87
2024/02/17 11:07:46;;;;;;;6.43;5.80;;;19.10;94.00;;;;;;4931229;29;20211;-87
2024/02/17 11:10:13;;;;;;;7.60;6.03;;;18.80;93.20;;;;;;4932501;29;20181;-86
2024/02/17 11:12:40;;;;;;;6.80;6.15;;;18.80;93.30;;;;;;4932294;29;20197;-86
2024/02/17 11:15:11;;;;;;;6.85;6.25;;;18.60;93.00;;;;;;4931411;29;20213;-86
2024/02/17 11:17:50;;;;;;;5.32;4.82;;;17.80;93.50;;;;;;4931190;29;20386;-86
2024/02/17 11:20:16;;;;;;;6.88;5.85;;;17.60;92.90;;;;;;4936359;29;20200;-87
2024/02/17 11:22:45;;;;;;;5.20;4.70;;;17.60;93.80;;;;;;4929716;29;20741;-86
2024/02/17 11:25:11;;;;;;;7.90;6.32;;;17.20;94.10;;;;;;4934342;28;20230;-86
2024/02/17 11:27:41;;;;;;;7.57;6.95;;;17.10;94.80;;;;;;4930911;29;20189;-88
2024/02/17 11:30:08;;;;;;;6.70;6.10;;;16.60;96.30;;;;;;4923535;29;20617;-87
2024/02/17 11:32:36;;;;;;;6.90;6.25;;;16.60;96.70;;;;;;4929956;29;20190;-86
2024/02/17 11:35:04;;;;;;;7.68;6.88;;;16.60;97.70;;;;;;4930934;29;20285;-87
2024/02/17 11:37:34;;;;;;;8.30;6.47;;;16.40;97.60;;;;;;4929716;29;20229;-87
2024/02/17 11:40:01;;;;;;;9.85;6.28;;;16.30;97.60;;;;;;4930321;29;20604;-87
2024/02/17 11:42:27;;;;;;;6.72;6.03;;;16.20;98.50;;;;;;4930932;29;20208;-87
2024/02/17 11:44:54;;;;;;;7.00;6.30;;;16.60;98.20;;;;;;4930371;29;20277;-86
2024/02/17 11:47:20;;;;;;;8.05;6.65;;;17.50;97.20;;;;;;4931817;29;20233;-88
2024/02/17 11:49:45;;;;;;;7.00;6.27;;;17.70;95.80;;;;;;4933921;29;20549;-88
2024/02/17 11:52:12;;;;;;;6.47;5.87;;;18.10;95.80;;;;;;4932446;29;20659;-88
2024/02/17 11:54:37;;;;;;;8.43;6.53;;;17.30;95.10;;;;;;4934085;29;20186;-87
2024/02/17 11:57:03;;;;;;;6.20;5.60;;;17.50;95.50;;;;;;4933868;29;20257;-86
2024/02/17 11:59:29;;;;;;;8.13;7.33;;;17.00;96.00;;;;;;4931736;29;20217;-87
2024/02/17 12:01:56;;;;;;;6.50;5.45;;;17.30;96.70;;;;;;4949676;28;20220;-87
2024/02/17 12:04:22;;;;;;;5.28;4.72;;;17.00;96.00;;;;;;4933871;29;20249;-87
2024/02/17 12:06:48;;;;;;;7.07;5.87;;;16.80;96.30;;;;;;4920911;29;20309;-87
2024/02/17 12:09:14;;;;;;;5.90;5.30;;;16.10;96.60;;;;;;4938666;29;20194;-87
2024/02/17 12:11:43;;;;;;;7.40;5.25;;;16.00;97.90;;;;;;4948766;29;20198;-86
2024/02/17 12:14:10;;;;;;;5.90;4.18;;;15.70;96.70;;;;;;4964404;28;20189;-85
2024/02/17 12:16:37;;;;;;;4.18;3.40;;;16.00;97.00;;;;;;4935155;29;20229;-87
2024/02/17 12:19:09;;;;;;;6.05;3.40;;;16.00;96.20;;;;;;4934422;29;20615;-87
2024/02/17 12:21:40;;;;;;;4.13;3.70;;;16.00;95.10;;;;;;4933234;29;20189;-87
2024/02/17 12:24:07;;;;;;;4.70;3.78;;;15.60;94.80;;;;;;4934541;29;20224;-87
2024/02/17 12:26:33;;;;;;;4.80;4.30;;;16.10;95.10;;;;;;4932982;29;20205;-87
2024/02/17 12:29:03;;;;;;;4.00;3.50;;;15.90;94.80;;;;;;4930930;29;20189;-87
2024/02/17 12:31:31;;;;;;;5.18;3.38;;;16.10;95.20;;;;;;4930572;29;20268;-87
2024/02/17 12:33:57;;;;;;;3.50;3.20;;;16.10;95.30;;;;;;4934791;29;20189;-86
2024/02/17 12:36:23;;;;;;;4.40;3.90;;;15.90;95.20;;;;;;4934727;29;20303;-87